Time;durP1;ratioP1;P1;durP2;ratioP2;P2;SDS_P1;SDS_P2;PMS_P1;PMS_P2;Temp;Humidity;BMP_temperature;BMP_pressure;BME280_temperature;BME280_humidity;BME280_pressure;Samples;Min_cycle;Max_cycle;Signal;HPM_P1;HPM_P2
2022/11/20 00:00:28;;;;;;;25.42;10.68;;;;;;;;;;4993828;28;20128;-68
2022/11/20 00:02:53;;;;;;;32.85;13.38;;;;;;;;;;4994198;28;20018;-67
2022/11/20 00:05:19;;;;;;;31.48;12.52;;;;;;;;;;4993798;28;20468;-67
2022/11/20 00:07:44;;;;;;;29.60;12.38;;;;;;;;;;4995424;28;20023;-68
2022/11/20 00:10:09;;;;;;;28.33;12.68;;;;;;;;;;4993723;28;20022;-66
2022/11/20 00:12:35;;;;;;;29.33;12.68;;;;;;;;;;4993580;28;20365;-68
2022/11/20 00:15:00;;;;;;;20.42;9.82;;;;;;;;;;4992609;28;20023;-67
2022/11/20 00:17:25;;;;;;;26.45;13.02;;;;;;;;;;4995538;28;20057;-66
2022/11/20 00:19:50;;;;;;;33.88;12.50;;;;;;;;;;4988897;28;20105;-69
2022/11/20 00:22:16;;;;;;;25.55;12.43;;;;;;;;;;4990502;28;20076;-68
2022/11/20 00:24:41;;;;;;;24.35;11.48;;;;;;;;;;4990688;28;20096;-68
2022/11/20 00:27:06;;;;;;;30.40;12.30;;;;;;;;;;4991525;28;20435;-67
2022/11/20 00:29:32;;;;;;;23.42;11.80;;;;;;;;;;4991555;28;20024;-67
2022/11/20 00:31:57;;;;;;;34.22;12.32;;;;;;;;;;4992139;28;20606;-67
2022/11/20 00:34:22;;;;;;;27.55;12.25;;;;;;;;;;4991575;28;20036;-68
2022/11/20 00:36:47;;;;;;;25.25;11.93;;;;;;;;;;4991484;28;20022;-66
2022/11/20 00:39:12;;;;;;;26.35;10.98;;;;;;;;;;4991349;28;20027;-70
2022/11/20 00:41:38;;;;;;;24.70;11.98;;;;;;;;;;4991512;28;20052;-68
2022/11/20 00:44:03;;;;;;;35.85;13.25;;;;;;;;;;4991531;28;20112;-68
2022/11/20 00:46:28;;;;;;;27.45;11.45;;;;;;;;;;4991341;28;20022;-66
2022/11/20 00:48:54;;;;;;;25.08;11.02;;;;;;;;;;4990946;28;20103;-67
2022/11/20 00:51:21;;;;;;;25.55;12.18;;;;;;;;;;4991129;28;20030;-68
2022/11/20 00:53:46;;;;;;;28.75;12.70;;;;;;;;;;4990413;28;20431;-65
2022/11/20 00:56:12;;;;;;;24.83;12.32;;;;;;;;;;4991985;28;20023;-69
2022/11/20 00:58:39;;;;;;;30.40;10.93;;;;;;;;;;4989740;28;20418;-67
2022/11/20 01:01:07;;;;;;;33.00;11.73;;;;;;;;;;4991210;28;20042;-67
2022/11/20 01:03:37;;;;;;;30.58;12.77;;;;;;;;;;4991128;28;20420;-68
2022/11/20 01:06:03;;;;;;;25.63;11.40;;;;;;;;;;4990955;28;20566;-67
2022/11/20 01:08:32;;;;;;;26.77;13.13;;;;;;;;;;4995789;28;20094;-67
2022/11/20 01:10:57;;;;;;;;;;;;;;;;;;4999116;28;20172;-67
2022/11/20 01:13:38;;;;;;;23.33;11.05;;;;;;;;;;5000827;28;19905;-69
2022/11/20 01:16:10;;;;;;;23.90;11.68;;;;;;;;;;4991068;28;20022;-67
2022/11/20 01:18:36;;;;;;;27.63;10.57;;;;;;;;;;4997598;28;20022;-71
2022/11/20 01:21:02;;;;;;;24.88;11.73;;;;;;;;;;5000640;28;20021;-68
2022/11/20 01:23:30;;;;;;;28.88;11.73;;;;;;;;;;4991244;28;20101;-69
2022/11/20 01:25:59;;;;;;;34.42;12.80;;;;;;;;;;4990546;28;20058;-69
2022/11/20 01:28:24;;;;;;;35.35;12.73;;;;;;;;;;4990785;28;20046;-69
2022/11/20 01:30:49;;;;;;;22.27;11.30;;;;;;;;;;4989519;28;20464;-66
2022/11/20 01:33:14;;;;;;;32.05;13.23;;;;;;;;;;4989756;28;20022;-68
2022/11/20 01:35:40;;;;;;;25.00;11.40;;;;;;;;;;4990773;28;20018;-66
2022/11/20 01:38:05;;;;;;;27.73;11.20;;;;;;;;;;4990408;28;20341;-66
2022/11/20 01:40:30;;;;;;;33.05;13.52;;;;;;;;;;4990085;28;20773;-68
2022/11/20 01:43:22;;;;;;;27.33;11.82;;;;;;;;;;4988573;28;20022;-68
2022/11/20 01:45:50;;;;;;;26.63;10.27;;;;;;;;;;4993037;28;20085;-69
2022/11/20 01:48:15;;;;;;;28.95;11.50;;;;;;;;;;4990202;28;20018;-67
2022/11/20 01:50:41;;;;;;;28.20;12.70;;;;;;;;;;4990297;28;20026;-68
2022/11/20 01:53:09;;;;;;;29.45;11.63;;;;;;;;;;4989482;28;20088;-69
2022/11/20 01:55:36;;;;;;;30.92;11.65;;;;;;;;;;4990462;28;20546;-68
2022/11/20 01:58:02;;;;;;;20.30;10.00;;;;;;;;;;4990278;28;20027;-68
2022/11/20 02:00:27;;;;;;;28.88;12.23;;;;;;;;;;4989771;28;20029;-69
2022/11/20 02:03:01;;;;;;;27.38;12.63;;;;;;;;;;4990089;28;20045;-68
2022/11/20 02:05:41;;;;;;;31.15;11.68;;;;;;;;;;4977149;28;20026;-67
2022/11/20 02:08:07;;;;;;;31.52;12.60;;;;;;;;;;4997756;28;20391;-67
2022/11/20 02:10:32;;;;;;;38.80;13.85;;;;;;;;;;4989615;28;20052;-67
2022/11/20 02:15:42;;;;;;;36.38;14.07;;;;;;;;;;4989721;28;20197;-66
2022/11/20 02:18:09;;;;;;;46.92;13.73;;;;;;;;;;4989113;28;20535;-66
2022/11/20 02:20:34;;;;;;;37.63;15.32;;;;;;;;;;4987001;28;20037;-68
2022/11/20 02:23:03;;;;;;;44.42;13.55;;;;;;;;;;4989256;28;20022;-68
2022/11/20 02:25:29;;;;;;;32.83;14.18;;;;;;;;;;4989333;28;20106;-67
2022/11/20 02:27:55;;;;;;;29.10;12.65;;;;;;;;;;4987477;28;20065;-69
2022/11/20 02:30:20;;;;;;;32.95;14.00;;;;;;;;;;4989662;28;20057;-70
2022/11/20 02:32:46;;;;;;;28.00;11.77;;;;;;;;;;4990169;28;20022;-68
2022/11/20 02:35:17;;;;;;;24.95;11.88;;;;;;;;;;4988603;28;20030;-67
2022/11/20 02:37:43;;;;;;;27.40;11.52;;;;;;;;;;4989389;28;20030;-67
2022/11/20 02:40:08;;;;;;;35.10;13.02;;;;;;;;;;4989924;28;20405;-68
2022/11/20 02:42:34;;;;;;;34.60;14.25;;;;;;;;;;4990096;28;20059;-67
2022/11/20 02:44:59;;;;;;;25.67;12.23;;;;;;;;;;4989354;28;20033;-67
2022/11/20 02:47:25;;;;;;;30.02;11.60;;;;;;;;;;4989583;28;20041;-69
2022/11/20 02:49:50;;;;;;;38.13;11.93;;;;;;;;;;4990573;28;20032;-69
2022/11/20 02:52:15;;;;;;;33.35;11.73;;;;;;;;;;4989547;28;20029;-67
2022/11/20 02:54:40;;;;;;;32.30;14.05;;;;;;;;;;4989648;28;20077;-67
2022/11/20 02:57:06;;;;;;;32.33;12.20;;;;;;;;;;4988075;28;20056;-68
2022/11/20 02:59:31;;;;;;;41.97;11.77;;;;;;;;;;4989206;28;20034;-67
2022/11/20 03:01:59;;;;;;;31.23;13.95;;;;;;;;;;4988950;28;20068;-67
2022/11/20 03:04:24;;;;;;;26.40;13.05;;;;;;;;;;4989750;28;20527;-70
2022/11/20 03:06:49;;;;;;;28.83;11.77;;;;;;;;;;4990678;28;20174;-67
2022/11/20 03:09:15;;;;;;;26.17;11.77;;;;;;;;;;4991834;28;20097;-69
2022/11/20 03:11:40;;;;;;;35.60;12.25;;;;;;;;;;4987268;28;20586;-67
2022/11/20 03:14:05;;;;;;;28.98;14.02;;;;;;;;;;4996804;28;20384;-69
2022/11/20 03:16:31;;;;;;;27.42;12.82;;;;;;;;;;4988320;28;20050;-67
2022/11/20 03:18:56;;;;;;;27.92;12.77;;;;;;;;;;4990046;28;20026;-67
2022/11/20 03:21:22;;;;;;;33.60;15.10;;;;;;;;;;4999012;28;20495;-67
2022/11/20 03:23:47;;;;;;;34.00;13.05;;;;;;;;;;4988817;28;20022;-69
2022/11/20 03:26:17;;;;;;;33.20;12.90;;;;;;;;;;4988079;28;20034;-67
2022/11/20 03:28:45;;;;;;;37.00;15.15;;;;;;;;;;4988577;28;20069;-67
2022/11/20 03:31:12;;;;;;;37.75;14.73;;;;;;;;;;4988820;28;20018;-67
2022/11/20 03:33:38;;;;;;;31.20;13.27;;;;;;;;;;4988550;28;20544;-66
2022/11/20 03:36:04;;;;;;;31.13;13.70;;;;;;;;;;4988730;28;20113;-67
2022/11/20 03:38:32;;;;;;;34.50;14.38;;;;;;;;;;4988235;28;20105;-67
2022/11/20 03:41:02;;;;;;;25.83;12.65;;;;;;;;;;4986910;28;20034;-67
2022/11/20 03:43:28;;;;;;;43.20;14.38;;;;;;;;;;4982731;28;20022;-67
2022/11/20 03:45:53;;;;;;;31.80;13.77;;;;;;;;;;4990815;28;20042;-68
2022/11/20 03:48:18;;;;;;;37.55;13.68;;;;;;;;;;4988410;28;20096;-68
2022/11/20 03:50:44;;;;;;;35.92;14.05;;;;;;;;;;4988961;28;20030;-67
2022/11/20 03:53:09;;;;;;;26.85;12.73;;;;;;;;;;4988597;28;20022;-68
2022/11/20 03:55:34;;;;;;;33.25;14.98;;;;;;;;;;4988065;28;20029;-68
2022/11/20 03:57:59;;;;;;;30.40;14.45;;;;;;;;;;4987890;28;20026;-66
2022/11/20 04:00:25;;;;;;;40.35;15.30;;;;;;;;;;4988385;28;20029;-70
2022/11/20 04:02:50;;;;;;;41.92;16.05;;;;;;;;;;4988361;28;20467;-68
2022/11/20 04:05:15;;;;;;;34.22;15.35;;;;;;;;;;4988329;28;20030;-69
2022/11/20 04:07:40;;;;;;;35.03;15.70;;;;;;;;;;4995331;28;20022;-67
2022/11/20 04:10:06;;;;;;;34.63;15.05;;;;;;;;;;4989955;28;20019;-66
2022/11/20 04:12:32;;;;;;;34.38;14.00;;;;;;;;;;4988804;28;20022;-70
2022/11/20 04:14:57;;;;;;;49.83;14.60;;;;;;;;;;4988457;28;20128;-68
2022/11/20 04:17:22;;;;;;;36.15;14.75;;;;;;;;;;4988046;28;20022;-69
2022/11/20 04:19:47;;;;;;;38.13;14.15;;;;;;;;;;4992111;28;20329;-69
2022/11/20 04:22:13;;;;;;;34.45;14.75;;;;;;;;;;4995932;28;20030;-69
2022/11/20 04:24:38;;;;;;;41.22;16.65;;;;;;;;;;4986532;28;20424;-67
2022/11/20 04:27:03;;;;;;;36.42;15.15;;;;;;;;;;4986780;28;20022;-68
2022/11/20 04:29:28;;;;;;;36.55;15.80;;;;;;;;;;4987866;28;20099;-68
2022/11/20 04:31:54;;;;;;;32.80;13.68;;;;;;;;;;4986858;28;20080;-68
2022/11/20 04:34:19;;;;;;;44.53;15.73;;;;;;;;;;4988324;28;20659;-69
2022/11/20 04:36:47;;;;;;;36.88;15.23;;;;;;;;;;4970576;28;20050;-69
2022/11/20 04:39:14;;;;;;;31.95;13.70;;;;;;;;;;4987936;28;20486;-68
2022/11/20 04:41:39;;;;;;;38.08;16.17;;;;;;;;;;4988189;28;20026;-68
2022/11/20 04:44:05;;;;;;;43.28;14.77;;;;;;;;;;4988955;28;20034;-67
2022/11/20 04:46:34;;;;;;;38.47;13.88;;;;;;;;;;4991655;28;20460;-68
2022/11/20 04:48:59;;;;;;;47.88;16.40;;;;;;;;;;4992341;28;20090;-66
2022/11/20 04:51:28;;;;;;;38.08;14.82;;;;;;;;;;4991292;28;20526;-68
2022/11/20 04:53:53;;;;;;;41.72;16.33;;;;;;;;;;4991240;28;20026;-67
2022/11/20 04:56:18;;;;;;;36.88;15.63;;;;;;;;;;4990832;28;20026;-64
2022/11/20 04:58:44;;;;;;;40.47;16.75;;;;;;;;;;4990955;28;20029;-66
2022/11/20 05:01:13;;;;;;;38.30;15.57;;;;;;;;;;4991573;28;20037;-67
2022/11/20 05:03:39;;;;;;;38.25;15.50;;;;;;;;;;4990964;28;20129;-65
2022/11/20 05:06:07;;;;;;;32.03;14.77;;;;;;;;;;4990790;28;20055;-67
2022/11/20 05:08:33;;;;;;;40.83;15.18;;;;;;;;;;4995107;28;20022;-67
2022/11/20 05:11:02;;;;;;;41.45;15.05;;;;;;;;;;4988730;28;20488;-66
2022/11/20 05:13:27;;;;;;;28.63;13.40;;;;;;;;;;4998450;28;20084;-67
2022/11/20 05:15:52;;;;;;;34.97;15.40;;;;;;;;;;5006142;28;20026;-67
2022/11/20 05:18:17;;;;;;;32.83;14.45;;;;;;;;;;4994703;28;20032;-68
2022/11/20 05:20:43;;;;;;;40.78;16.23;;;;;;;;;;5001989;28;20025;-67
2022/11/20 05:23:10;;;;;;;34.30;15.73;;;;;;;;;;4991790;28;20110;-68
2022/11/20 05:25:36;;;;;;;44.88;16.67;;;;;;;;;;4991001;28;20022;-66
2022/11/20 05:28:01;;;;;;;36.20;14.93;;;;;;;;;;4990460;28;20021;-69
2022/11/20 05:30:26;;;;;;;36.25;16.38;;;;;;;;;;4989604;28;20030;-67
2022/11/20 05:32:51;;;;;;;33.15;15.48;;;;;;;;;;4990684;28;20019;-69
2022/11/20 05:35:16;;;;;;;37.88;15.25;;;;;;;;;;4990690;28;20423;-68
2022/11/20 05:37:42;;;;;;;35.08;16.00;;;;;;;;;;4990685;28;20280;-69
2022/11/20 05:40:07;;;;;;;35.22;15.43;;;;;;;;;;4991140;28;20033;-69
2022/11/20 05:42:33;;;;;;;34.55;12.95;;;;;;;;;;4986320;28;20034;-68
2022/11/20 05:45:02;;;;;;;37.38;15.82;;;;;;;;;;4993283;28;20019;-67
2022/11/20 05:47:31;;;;;;;48.97;15.38;;;;;;;;;;4990449;28;20078;-68
2022/11/20 05:49:56;;;;;;;37.42;15.32;;;;;;;;;;4989666;28;20108;-67
2022/11/20 05:52:21;;;;;;;33.40;14.02;;;;;;;;;;4990661;28;20440;-69
2022/11/20 05:54:46;;;;;;;33.33;14.85;;;;;;;;;;4990061;28;20025;-67
2022/11/20 05:57:12;;;;;;;49.28;16.23;;;;;;;;;;4990022;28;20105;-70
2022/11/20 05:59:37;;;;;;;32.72;13.75;;;;;;;;;;4990144;28;20022;-68
2022/11/20 06:02:02;;;;;;;43.33;15.63;;;;;;;;;;4990231;28;20015;-69
2022/11/20 06:04:28;;;;;;;34.75;14.02;;;;;;;;;;4990559;28;20046;-68
2022/11/20 06:06:53;;;;;;;33.13;15.00;;;;;;;;;;4991057;28;20089;-69
2022/11/20 06:09:18;;;;;;;61.08;17.63;;;;;;;;;;4996724;28;20031;-68
2022/11/20 06:11:43;;;;;;;30.42;14.90;;;;;;;;;;4990181;28;20026;-69
2022/11/20 06:14:09;;;;;;;42.72;15.05;;;;;;;;;;4989907;28;20098;-68
2022/11/20 06:16:34;;;;;;;35.40;14.68;;;;;;;;;;4989489;28;20031;-67
2022/11/20 06:18:59;;;;;;;33.13;13.48;;;;;;;;;;4996515;28;20532;-70
2022/11/20 06:21:24;;;;;;;36.03;15.18;;;;;;;;;;4988433;28;20019;-68
2022/11/20 06:23:50;;;;;;;31.73;13.68;;;;;;;;;;4995023;28;20019;-69
2022/11/20 06:26:19;;;;;;;30.55;12.77;;;;;;;;;;4987718;28;20112;-67
2022/11/20 06:28:45;;;;;;;42.75;15.65;;;;;;;;;;4989979;28;20102;-66
2022/11/20 06:31:11;;;;;;;36.65;13.27;;;;;;;;;;4990424;28;20029;-67
2022/11/20 06:33:36;;;;;;;28.50;12.70;;;;;;;;;;4990520;28;20022;-69
2022/11/20 06:36:03;;;;;;;33.92;14.45;;;;;;;;;;4990778;28;20333;-69
2022/11/20 06:38:28;;;;;;;38.75;16.08;;;;;;;;;;4989833;28;20093;-69
2022/11/20 06:40:53;;;;;;;33.25;15.65;;;;;;;;;;4989491;28;20025;-66
2022/11/20 06:43:19;;;;;;;36.20;14.82;;;;;;;;;;4989586;28;20628;-67
2022/11/20 06:45:51;;;;;;;29.95;14.65;;;;;;;;;;4989093;28;20022;-66
2022/11/20 06:48:16;;;;;;;40.70;15.45;;;;;;;;;;4988205;28;20157;-68
2022/11/20 06:50:41;;;;;;;34.45;16.05;;;;;;;;;;4988988;28;20097;-68
2022/11/20 06:53:07;;;;;;;32.95;15.05;;;;;;;;;;4989078;28;20507;-67
2022/11/20 06:55:32;;;;;;;33.00;14.65;;;;;;;;;;4988883;28;20093;-68
2022/11/20 06:57:57;;;;;;;40.58;17.20;;;;;;;;;;4988247;28;20037;-67
2022/11/20 07:00:23;;;;;;;34.38;15.30;;;;;;;;;;4987134;28;20471;-68
2022/11/20 07:02:48;;;;;;;35.10;14.23;;;;;;;;;;4989414;28;20086;-67
2022/11/20 07:05:17;;;;;;;32.42;15.82;;;;;;;;;;4988685;28;20026;-67
2022/11/20 07:07:42;;;;;;;30.50;13.13;;;;;;;;;;4995012;28;20029;-69
2022/11/20 07:10:07;;;;;;;30.67;16.08;;;;;;;;;;4989067;28;20022;-68
2022/11/20 07:12:33;;;;;;;35.55;15.43;;;;;;;;;;4994639;28;20045;-69
2022/11/20 07:14:58;;;;;;;40.58;16.38;;;;;;;;;;4989538;28;20062;-69
2022/11/20 07:17:23;;;;;;;36.45;14.45;;;;;;;;;;4988633;28;20113;-68
2022/11/20 07:19:48;;;;;;;24.85;11.63;;;;;;;;;;4996709;28;20448;-70
2022/11/20 07:22:14;;;;;;;30.92;15.25;;;;;;;;;;4996447;28;20117;-66
2022/11/20 07:24:39;;;;;;;40.10;15.18;;;;;;;;;;4988320;28;20050;-68
2022/11/20 07:27:04;;;;;;;44.15;18.88;;;;;;;;;;4988426;28;20053;-68
2022/11/20 07:29:30;;;;;;;30.48;13.15;;;;;;;;;;4988589;28;20105;-68
2022/11/20 07:31:58;;;;;;;46.13;17.83;;;;;;;;;;4988562;28;20019;-67
2022/11/20 07:34:23;;;;;;;47.50;17.13;;;;;;;;;;4988736;28;20488;-66
2022/11/20 07:36:48;;;;;;;40.55;15.02;;;;;;;;;;4987656;28;20053;-68
2022/11/20 07:39:14;;;;;;;38.67;16.30;;;;;;;;;;4986941;28;20219;-68
2022/11/20 07:41:39;;;;;;;34.85;15.38;;;;;;;;;;4988631;28;20022;-68
2022/11/20 07:44:04;;;;;;;36.17;14.07;;;;;;;;;;4987660;28;20109;-69
2022/11/20 07:46:29;;;;;;;43.63;16.83;;;;;;;;;;4990517;28;20042;-68
2022/11/20 07:48:55;;;;;;;31.80;13.73;;;;;;;;;;4988411;28;20117;-67
2022/11/20 07:51:20;;;;;;;43.55;15.77;;;;;;;;;;4988149;28;20018;-68
2022/11/20 07:53:45;;;;;;;38.20;15.85;;;;;;;;;;4987558;28;20388;-67
2022/11/20 07:56:10;;;;;;;37.60;14.93;;;;;;;;;;4987565;28;20038;-69
2022/11/20 07:58:36;;;;;;;37.03;14.65;;;;;;;;;;4985908;28;20095;-68
2022/11/20 08:01:06;;;;;;;38.47;15.65;;;;;;;;;;4989246;28;20455;-68
2022/11/20 08:03:31;;;;;;;33.67;14.43;;;;;;;;;;4993416;28;20587;-69
2022/11/20 08:05:58;;;;;;;37.88;14.55;;;;;;;;;;4987453;28;20023;-69
2022/11/20 08:08:23;;;;;;;31.05;12.88;;;;;;;;;;4989579;28;20073;-68
2022/11/20 08:10:49;;;;;;;40.28;16.35;;;;;;;;;;4986845;28;20156;-69
2022/11/20 08:15:57;;;;;;;34.75;14.45;;;;;;;;;;4976729;28;20158;-68
2022/11/20 08:18:23;;;;;;;33.38;13.45;;;;;;;;;;4991989;28;20116;-70
2022/11/20 08:20:48;;;;;;;32.10;14.80;;;;;;;;;;4986121;28;20621;-68
2022/11/20 08:23:16;;;;;;;28.60;13.50;;;;;;;;;;4995566;28;20415;-68
2022/11/20 08:25:41;;;;;;;35.80;14.73;;;;;;;;;;4985556;28;20024;-71
2022/11/20 08:28:08;;;;;;;37.38;15.23;;;;;;;;;;4993581;28;20110;-69
2022/11/20 08:30:33;;;;;;;32.95;15.00;;;;;;;;;;4989682;28;20038;-68
2022/11/20 08:33:06;;;;;;;30.20;13.73;;;;;;;;;;4990984;28;20027;-68
2022/11/20 08:35:38;;;;;;;31.95;14.13;;;;;;;;;;4991571;28;20118;-69
2022/11/20 08:38:06;;;;;;;36.15;13.90;;;;;;;;;;4991580;28;20113;-68
2022/11/20 08:40:32;;;;;;;34.00;14.13;;;;;;;;;;4999302;28;20072;-66
2022/11/20 08:42:57;;;;;;;40.42;15.32;;;;;;;;;;4991311;28;20026;-67
2022/11/20 08:45:22;;;;;;;36.05;13.07;;;;;;;;;;4991177;28;20085;-70
2022/11/20 08:47:48;;;;;;;28.17;12.35;;;;;;;;;;4990823;28;20473;-69
2022/11/20 08:50:14;;;;;;;31.60;13.55;;;;;;;;;;4991313;28;20069;-68
2022/11/20 08:52:39;;;;;;;35.70;12.95;;;;;;;;;;4985210;28;20109;-67
2022/11/20 08:55:05;;;;;;;30.23;13.15;;;;;;;;;;4988888;28;20117;-69
2022/11/20 08:57:31;;;;;;;35.33;14.20;;;;;;;;;;4990229;28;20443;-68
2022/11/20 08:59:57;;;;;;;28.67;12.77;;;;;;;;;;4990930;28;20030;-69
2022/11/20 09:02:22;;;;;;;39.42;14.20;;;;;;;;;;4990287;28;20110;-69
2022/11/20 09:04:47;;;;;;;32.97;13.88;;;;;;;;;;4990360;28;20094;-68
2022/11/20 09:07:12;;;;;;;34.30;13.40;;;;;;;;;;4992510;28;20021;-70
2022/11/20 09:09:37;;;;;;;35.70;12.35;;;;;;;;;;4991298;28;20130;-67
2022/11/20 09:12:03;;;;;;;37.15;12.65;;;;;;;;;;4988838;28;20030;-68
2022/11/20 09:14:29;;;;;;;29.60;12.40;;;;;;;;;;4987580;28;20022;-68
2022/11/20 09:16:55;;;;;;;40.72;12.68;;;;;;;;;;4987563;28;20037;-67
2022/11/20 09:19:21;;;;;;;28.90;12.48;;;;;;;;;;4996779;28;20022;-69
2022/11/20 09:21:46;;;;;;;38.58;14.20;;;;;;;;;;5000856;28;20022;-67
2022/11/20 09:24:11;;;;;;;39.83;14.88;;;;;;;;;;4998476;28;20149;-66
2022/11/20 09:26:36;;;;;;;34.83;13.90;;;;;;;;;;4987235;28;20014;-66
2022/11/20 09:29:02;;;;;;;27.55;12.23;;;;;;;;;;4989993;28;20453;-68
2022/11/20 09:31:27;;;;;;;29.67;13.50;;;;;;;;;;4990180;28;20349;-68
2022/11/20 09:33:52;;;;;;;24.50;11.88;;;;;;;;;;4990633;28;20196;-68
2022/11/20 09:36:18;;;;;;;28.42;13.30;;;;;;;;;;4997303;28;20021;-66
2022/11/20 09:38:44;;;;;;;29.48;12.88;;;;;;;;;;4996600;28;20077;-67
2022/11/20 09:41:12;;;;;;;30.42;13.30;;;;;;;;;;4989849;28;20037;-69
2022/11/20 09:43:46;;;;;;;36.38;14.02;;;;;;;;;;4987180;28;20019;-66
2022/11/20 09:46:32;;;;;;;32.70;12.80;;;;;;;;;;4995350;28;20073;-67
2022/11/20 09:49:03;;;;;;;32.72;14.20;;;;;;;;;;4972984;28;20050;-66
2022/11/20 09:51:34;;;;;;;36.72;14.95;;;;;;;;;;4989696;28;20023;-66
2022/11/20 09:53:59;;;;;;;36.90;14.43;;;;;;;;;;4990044;28;20097;-66
2022/11/20 09:56:25;;;;;;;24.70;11.90;;;;;;;;;;4985503;28;20047;-67
2022/11/20 09:58:52;;;;;;;32.90;13.48;;;;;;;;;;4992437;28;20048;-69
2022/11/20 10:01:18;;;;;;;33.63;14.10;;;;;;;;;;4992954;28;20050;-67
2022/11/20 10:03:46;;;;;;;27.30;12.50;;;;;;;;;;4988125;28;20027;-68
2022/11/20 10:06:15;;;;;;;34.47;12.87;;;;;;;;;;4988762;28;20014;-67
2022/11/20 10:08:43;;;;;;;27.98;12.38;;;;;;;;;;4991354;28;20018;-69
2022/11/20 10:11:11;;;;;;;33.13;14.68;;;;;;;;;;4990007;28;20076;-68
2022/11/20 10:13:39;;;;;;;30.85;13.63;;;;;;;;;;4990031;28;20023;-68
2022/11/20 10:16:14;;;;;;;34.65;14.10;;;;;;;;;;4989480;28;20025;-66
2022/11/20 10:18:42;;;;;;;31.50;13.45;;;;;;;;;;4987047;28;20057;-68
2022/11/20 10:21:19;;;;;;;29.38;13.35;;;;;;;;;;4993228;28;20033;-69
2022/11/20 10:23:56;;;;;;;29.70;13.20;;;;;;;;;;4999309;28;20022;-68
2022/11/20 10:26:23;;;;;;;37.15;12.70;;;;;;;;;;4987323;28;20114;-69
2022/11/20 10:28:53;;;;;;;29.13;12.07;;;;;;;;;;4989193;28;20081;-71
2022/11/20 10:31:28;;;;;;;24.63;11.13;;;;;;;;;;4990232;28;20029;-70
2022/11/20 10:33:54;;;;;;;31.90;12.68;;;;;;;;;;4990120;28;20054;-69
2022/11/20 10:36:38;;;;;;;29.63;11.00;;;;;;;;;;4986123;28;20053;-69
2022/11/20 10:39:11;;;;;;;23.10;10.70;;;;;;;;;;4984624;28;20285;-68
2022/11/20 10:41:40;;;;;;;28.08;11.52;;;;;;;;;;4988011;28;20026;-67
2022/11/20 10:44:14;;;;;;;35.05;12.40;;;;;;;;;;4989512;28;20511;-67
2022/11/20 10:46:48;;;;;;;25.70;11.85;;;;;;;;;;4988659;28;20026;-68
2022/11/20 10:49:18;;;;;;;27.35;10.18;;;;;;;;;;4990677;28;20041;-67
2022/11/20 10:51:43;;;;;;;25.05;11.00;;;;;;;;;;4989767;28;20102;-66
2022/11/20 10:54:27;;;;;;;23.35;9.68;;;;;;;;;;4988341;28;20049;-69
2022/11/20 10:56:53;;;;;;;22.55;10.25;;;;;;;;;;4985761;28;20030;-66
2022/11/20 10:59:24;;;;;;;18.90;10.00;;;;;;;;;;4987715;28;20136;-67
2022/11/20 11:01:49;;;;;;;21.58;9.30;;;;;;;;;;4982585;28;20046;-66
2022/11/20 11:04:32;;;;;;;23.33;9.68;;;;;;;;;;4994175;28;20060;-67
2022/11/20 11:07:26;;;;;;;19.98;9.45;;;;;;;;;;4989111;28;20049;-66
2022/11/20 11:09:53;;;;;;;21.25;8.77;;;;;;;;;;4987062;28;20042;-66
2022/11/20 11:12:20;;;;;;;21.70;8.77;;;;;;;;;;4985497;28;20622;-67
2022/11/20 11:14:49;;;;;;;23.63;7.85;;;;;;;;;;4976928;28;20119;-66
2022/11/20 11:17:41;;;;;;;19.48;7.97;;;;;;;;;;4982437;28;20108;-67
2022/11/20 11:20:16;;;;;;;21.17;8.88;;;;;;;;;;4978620;28;20041;-66
2022/11/20 11:22:59;;;;;;;25.30;8.85;;;;;;;;;;4972885;28;20019;-67
2022/11/20 11:25:33;;;;;;;18.55;8.13;;;;;;;;;;4978363;28;20339;-70
2022/11/20 11:27:59;;;;;;;21.63;9.75;;;;;;;;;;4986585;28;20037;-68
2022/11/20 11:30:25;;;;;;;21.83;8.38;;;;;;;;;;4989717;28;20050;-68
2022/11/20 11:33:01;;;;;;;22.60;9.88;;;;;;;;;;4986493;28;20030;-67
2022/11/20 11:35:27;;;;;;;19.58;8.45;;;;;;;;;;4982802;28;20042;-68
2022/11/20 11:38:04;;;;;;;22.42;9.57;;;;;;;;;;4988891;28;20026;-68
2022/11/20 11:40:30;;;;;;;23.60;8.88;;;;;;;;;;4992554;28;20472;-68
2022/11/20 11:42:57;;;;;;;18.63;8.43;;;;;;;;;;4992481;28;20034;-67
2022/11/20 11:45:23;;;;;;;18.27;8.15;;;;;;;;;;4988878;28;20109;-68
2022/11/20 11:47:51;;;;;;;16.00;6.85;;;;;;;;;;4985958;28;20106;-67
2022/11/20 11:50:26;;;;;;;22.02;8.10;;;;;;;;;;4983152;28;20041;-66
2022/11/20 11:53:09;;;;;;;16.80;7.53;;;;;;;;;;4988938;28;20030;-68
2022/11/20 11:56:03;;;;;;;16.67;7.68;;;;;;;;;;4980175;28;20053;-68
2022/11/20 11:58:34;;;;;;;16.88;7.72;;;;;;;;;;4983820;28;20452;-68
2022/11/20 12:01:02;;;;;;;17.77;7.68;;;;;;;;;;4984299;28;20216;-66
2022/11/20 12:03:33;;;;;;;22.25;9.30;;;;;;;;;;4990133;28;20406;-69
2022/11/20 12:06:01;;;;;;;18.38;7.28;;;;;;;;;;4984589;28;20034;-68
2022/11/20 12:08:36;;;;;;;16.63;7.53;;;;;;;;;;4991651;28;20049;-68
2022/11/20 12:11:10;;;;;;;19.90;8.23;;;;;;;;;;4991158;28;20144;-68
2022/11/20 12:13:48;;;;;;;18.15;7.30;;;;;;;;;;4988729;28;20084;-66
2022/11/20 12:16:14;;;;;;;22.17;8.75;;;;;;;;;;4993464;28;20164;-70
2022/11/20 12:18:41;;;;;;;14.20;7.32;;;;;;;;;;4991164;28;20091;-68
2022/11/20 12:21:06;;;;;;;16.83;7.68;;;;;;;;;;4987188;28;20748;-66
2022/11/20 12:23:31;;;;;;;17.50;7.22;;;;;;;;;;4991744;28;20030;-69
2022/11/20 12:26:01;;;;;;;17.00;7.40;;;;;;;;;;4986565;28;20034;-69
2022/11/20 12:28:30;;;;;;;19.70;8.32;;;;;;;;;;4990569;28;20022;-68
2022/11/20 12:30:58;;;;;;;19.42;8.07;;;;;;;;;;4986711;28;20140;-68
2022/11/20 12:33:29;;;;;;;16.20;7.75;;;;;;;;;;4994794;28;20029;-69
2022/11/20 12:36:19;;;;;;;20.63;7.93;;;;;;;;;;4987225;28;20030;-72
2022/11/20 12:39:02;;;;;;;17.90;8.25;;;;;;;;;;4988548;28;20130;-68
2022/11/20 12:47:31;;;;;;;19.02;8.60;;;;;;;;;;4993589;28;20562;-67
2022/11/20 12:50:02;;;;;;;18.17;8.48;;;;;;;;;;4969925;28;20045;-68
2022/11/20 12:52:46;;;;;;;24.23;8.93;;;;;;;;;;4993389;28;20037;-68
2022/11/20 12:55:11;;;;;;;19.60;7.47;;;;;;;;;;4990425;28;20097;-68
2022/11/20 12:57:59;;;;;;;17.02;7.70;;;;;;;;;;4994089;28;20101;-67
2022/11/20 13:00:25;;;;;;;16.58;7.20;;;;;;;;;;4988596;28;20023;-67
2022/11/20 13:03:08;;;;;;;15.95;7.80;;;;;;;;;;4991084;28;20024;-68
2022/11/20 13:05:39;;;;;;;22.60;9.02;;;;;;;;;;4990669;28;20033;-69
2022/11/20 13:08:07;;;;;;;18.00;7.43;;;;;;;;;;4993639;28;20053;-69
2022/11/20 13:10:43;;;;;;;22.80;8.60;;;;;;;;;;4992612;28;20253;-67
2022/11/20 13:13:35;;;;;;;18.60;7.35;;;;;;;;;;4993324;28;20030;-70
2022/11/20 13:16:05;;;;;;;17.23;7.55;;;;;;;;;;4990853;28;20149;-66
2022/11/20 13:18:33;;;;;;;25.80;9.38;;;;;;;;;;4991967;28;20030;-69
2022/11/20 13:20:59;;;;;;;26.38;8.15;;;;;;;;;;4996242;28;20557;-66
2022/11/20 13:23:25;;;;;;;20.70;8.93;;;;;;;;;;4993585;28;20041;-71
2022/11/20 13:25:52;;;;;;;18.58;7.97;;;;;;;;;;4994488;28;20076;-67
2022/11/20 13:28:20;;;;;;;17.80;7.72;;;;;;;;;;4995131;28;20488;-68
2022/11/20 13:30:50;;;;;;;19.95;9.57;;;;;;;;;;4995158;28;20444;-68
2022/11/20 13:33:32;;;;;;;17.38;7.38;;;;;;;;;;4998499;28;20026;-71
2022/11/20 13:36:00;;;;;;;21.00;7.60;;;;;;;;;;4990760;28;20032;-67
2022/11/20 13:38:25;;;;;;;22.03;8.00;;;;;;;;;;4992240;28;20046;-68
2022/11/20 13:40:51;;;;;;;17.42;7.50;;;;;;;;;;4991575;28;20076;-68
2022/11/20 13:43:24;;;;;;;16.02;7.68;;;;;;;;;;4993003;28;20025;-69
2022/11/20 13:46:02;;;;;;;23.45;7.45;;;;;;;;;;4989713;28;20101;-71
2022/11/20 13:48:39;;;;;;;18.98;7.22;;;;;;;;;;4996311;28;20021;-71
2022/11/20 13:51:04;;;;;;;20.05;8.68;;;;;;;;;;4991832;28;20447;-67
2022/11/20 13:53:50;;;;;;;23.17;8.93;;;;;;;;;;4989665;28;20074;-69
2022/11/20 13:56:23;;;;;;;22.30;7.22;;;;;;;;;;4983208;28;20523;-69
2022/11/20 13:59:07;;;;;;;16.50;6.75;;;;;;;;;;4990029;28;20038;-68
2022/11/20 14:01:34;;;;;;;14.05;6.55;;;;;;;;;;4992811;28;20776;-69
2022/11/20 14:03:59;;;;;;;15.25;6.72;;;;;;;;;;4994829;28;20483;-70
2022/11/20 14:06:24;;;;;;;15.07;6.30;;;;;;;;;;4990695;28;20026;-67
2022/11/20 14:08:50;;;;;;;18.88;7.78;;;;;;;;;;4991281;28;20021;-68
2022/11/20 14:11:15;;;;;;;20.52;7.60;;;;;;;;;;4992707;28;20407;-70
2022/11/20 14:13:51;;;;;;;16.70;8.20;;;;;;;;;;4991822;28;20404;-68
2022/11/20 14:16:19;;;;;;;17.70;8.15;;;;;;;;;;4993576;28;20014;-69
2022/11/20 14:18:44;;;;;;;25.33;8.23;;;;;;;;;;4992562;28;20107;-68
2022/11/20 14:21:10;;;;;;;18.65;7.78;;;;;;;;;;4991164;28;20189;-69
2022/11/20 14:23:35;;;;;;;20.65;8.27;;;;;;;;;;4988328;28;20026;-68
2022/11/20 14:26:00;;;;;;;22.52;8.27;;;;;;;;;;4986440;28;20030;-67
2022/11/20 14:28:30;;;;;;;20.75;8.38;;;;;;;;;;4986284;28;20445;-68
2022/11/20 14:30:56;;;;;;;20.50;8.02;;;;;;;;;;4991677;28;20033;-67
2022/11/20 14:33:24;;;;;;;17.13;8.68;;;;;;;;;;4992182;28;20017;-68
2022/11/20 14:35:54;;;;;;;20.60;8.77;;;;;;;;;;4988522;28;20024;-67